AirNav   Air Wisconsin Up To $57,000 Bonus
 
 1394 users online  

17MI Grace Hospital Heliport
Detroit, Michigan, USA

GOING TO DETROIT?


FAA INFORMATION EFFECTIVE 05 DECEMBER 2019

Location

FAA Identifier: 17MI
Lat/Long: 42-25-05.0100N 083-10-57.4200W
42-25.083500N 083-10.957000W
42.4180583,-83.1826167
(estimated)
Elevation: 662 ft. / 202 m (estimated)
Variation: 06W (1990)
Time zone: UTC -5 (UTC -4 during Daylight Saving Time)
Zip code: 48235

Heliport Operations

Heliport use: Private use, MEDICAL USE.
Activation date: 10/1994
Control tower: no
ARTCC: CLEVELAND CENTER
FSS: LANSING FLIGHT SERVICE STATION
Attendance: CONTINUOUS
Wind indicator: lighted
Segmented circle: no
Lights: SS-SR

Heliport Communications

WX AWOS-3 at VLL (7 nm N): 119.475 (248-288-4649)
WX ASOS at DET (8 nm E): PHONE 313-371-9696
WX ASOS at DTW (14 nm SW): PHONE 734-955-5015
WX ASOS at PTK (18 nm NW): 125.025 (248-886-8551)
WX ASOS at YIP (19 nm SW): PHONE 734-961-6843
WX AWOS-3 at ONZ (19 nm S): 119.675 (734-692-9686)

Nearby radio navigation aids

VOR radial/distance  VOR name  Freq  Var
DXOr040/14.8DETROIT VOR/DME113.4006W
SVMr091/18.2SALEM VORTAC114.3003W
YQGr309/18.7WINDSOR VOR/DME113.8006W
CRLr032/25.3CARLETON VOR/DME115.7003W

 
NDB name  Hdg/Dist  Freq  Var  ID
GROSSE ILE003/19.141907WRYS .-. -.-- ...
TECUMSEH060/38.823906WTCU - -.-. ..-

Heliport Services

Runway Information

Helipad H1

Dimensions: 25 x 25 ft. / 8 x 8 m
Surface: concrete, in good condition
Runway edge lights: PERI
PERIMETER LIGHTS
Latitude: 42-25.083500N
Longitude: 083-10.957000W
Elevation: 662.0 ft.
Traffic pattern: leftleft

Heliport Ownership and Management from official FAA records

Ownership: Privately-owned
Owner: VHS SINAI-GRACE HOSPITAL
6071 W OUTER DR
DETROIT, MI 48235
Phone (313) 966-1952
Manager: WILLIAM GILBERT
6071 W OUTER DR
DETROIT, MI 48235
Phone (313) 966-1952

Additional Remarks

A52-H1 25 FT LIGHT POLE 126 FT S.
APCH/DEP 360/180
FOR CD CTC DETROIT APCH AT 800-499-8181.

Instrument Procedures

There are no published instrument procedures at 17MI.

Some nearby airports with instrument procedures:

KVLL - Oakland/Troy Airport (7 nm N)
KDET - Coleman A Young Municipal Airport (8 nm E)
1D2 - Canton-Plymouth-Mettetal Airport (13 nm W)
KDTW - Detroit Metropolitan Wayne County Airport (14 nm SW)
KPTK - Oakland County International Airport (18 nm NW)
KYIP - Willow Run Airport (19 nm SW)
KONZ - Grosse Ile Municipal Airport (19 nm S)
KMTC - Selfridge Air National Guard Base (19 nm NE)
 
Loc | Ops | Rwys | IFR | FBO | Links
Com | Nav | Svcs | Stats | Notes
Area around 17MI (Grace Hospital Heliport)
 
Road maps at: MapQuest Bing Google
 
Aerial photo
No photo
 
Sectional chart

 
Airport distance calculator
Flying to Grace Hospital Heliport? Find the distance to fly.

From to 17MI

Sunrise and sunset
Times for 09-Dec-2019
 Local
(UTC-5)
 Zulu
(UTC)
Morning civil twilight07:2012:20
Sunrise07:5112:51
Sunset16:5921:59
Evening civil twilight17:3122:31

Current date and time
Zulu (UTC)  09-Dec-2019 18:29:43
Local (UTC-5)  09-Dec-2019 13:29:43
 
METAR
KDET 
7nm E 
091753Z 20013G23KT 8SM -RA OVC008 09/09 A2948 RMK AO2 CIG 006V011 SLP984 P0000 60014 T00890089 10089 20083 56052
KVLL 
7nm N 
091815Z AUTO 20007KT 7SM RA OVC006 09/08 A2946 RMK AO2 T00850082
KDTW 
13nm SW 
091753Z 20014G23KT 3SM -RA OVC011 09/08 A2948 RMK AO2 SFC VIS 7 SLP983 P0001 60021 T00940083 10094 20078 57049
CYQG 
13nm SE 
091800Z AUTO 21015G24KT 9SM -RA 09/08 A2948 RMK CLD MISG SLP986
KPTK 
18nm NW 
091753Z 19007KT 3SM -RA BR OVC006 08/07 A2944 RMK AO2 TWR VIS 4 SLP972 CIG 005V007 P0003 60025 T00830072 10083 20072 58050
KYIP 
19nm SW 
091821Z 21016G22KT 10SM -RA OVC010 11/09 A2946 RMK AO2 CIG 007V013 P0000 T01110089
KONZ 
19nm S 
091816Z AUTO 20010KT 4SM -RA SCT006 OVC013 07/07 A2947 RMK AO2 T00700066
TAF
KDET 
7nm E 
091720Z 0918/1018 21011G19KT 3SM -DZ BR OVC005 FM092300 22012G20KT 5SM -DZ BR BKN008 OVC018 FM100400 26014G26KT P6SM OVC022 FM100700 27015G26KT P6SM BKN028 OVC040 FM101200 29012G22KT P6SM OVC045
KDTW 
13nm SW 
091720Z 0918/1024 21011G19KT 3SM -DZ BR OVC005 FM092300 22012G20KT 5SM -DZ BR BKN008 OVC018 FM100400 26014G26KT P6SM OVC022 FM100700 27015G26KT P6SM BKN028 OVC040 FM101200 29012G22KT P6SM OVC045 FM101900 27014KT P6SM BKN045
CYQG 
13nm SE 
091744Z 0918/1018 FCST NOT AVBL DUE CLD HGT SENSOR INOP RMK FCST BASED ON AUTO OBS. NXT FCST BY 100000Z
KPTK 
18nm NW 
091720Z 0918/1018 18006KT 2SM -RA BR OVC004 FM092300 22012G20KT 5SM -DZ BR BKN008 OVC022 FM100400 27015G25KT P6SM OVC022 FM101200 29012G22KT P6SM SCT028 OVC040
KYIP 
19nm SW 
091720Z 0918/1018 19011G19KT 3SM -DZ BR OVC005 FM092300 22012G20KT 5SM -DZ BR BKN008 OVC018 FM100400 26014G26KT P6SM OVC022 FM100700 27015G26KT P6SM BKN028 OVC040 FM101200 29012G22KT P6SM OVC045
NOTAMs
Click for the latest NOTAMs
NOTAMs are issued by the DoD/FAA and will open in a separate window not controlled by AirNav.

 

 
 

Would you like to see your business listed on this page?

 If your business provides an interesting product or service to pilots, flight crews, aircraft, or users of the Grace Hospital Heliport, you should consider listing it here.  To start the listing process, click on the button below
 
Add a business
 

Other Pages about Grace Hospital Heliport

Update a link
 
Copyright © AirNav, LLC. All rights reserved. Privacy Policy  Contact